sensor_id;sensor_type;location;lat;lon;timestamp;P1;durP1;ratioP1;P2;durP2;ratioP2
5137;SDS011;53959;53.626;11.410;2024-01-30T00:00:33;1999.90;;;899.03;;
5137;SDS011;53959;53.626;11.410;2024-01-30T00:02:58;1999.90;;;903.23;;
5137;SDS011;53959;53.626;11.410;2024-01-30T00:05:24;1999.90;;;903.00;;
5137;SDS011;53959;53.626;11.410;2024-01-30T00:07:49;1999.90;;;901.67;;
5137;SDS011;53959;53.626;11.410;2024-01-30T00:10:15;1999.90;;;902.83;;
5137;SDS011;53959;53.626;11.410;2024-01-30T00:12:40;1999.90;;;909.23;;
5137;SDS011;53959;53.626;11.410;2024-01-30T00:15:06;1999.90;;;906.73;;
5137;SDS011;53959;53.626;11.410;2024-01-30T00:17:34;1999.90;;;902.23;;
5137;SDS011;53959;53.626;11.410;2024-01-30T00:20:00;1999.90;;;900.90;;
5137;SDS011;53959;53.626;11.410;2024-01-30T00:22:25;1999.90;;;903.40;;
5137;SDS011;53959;53.626;11.410;2024-01-30T00:24:51;1999.90;;;892.07;;
5137;SDS011;53959;53.626;11.410;2024-01-30T00:27:16;1999.90;;;911.67;;
5137;SDS011;53959;53.626;11.410;2024-01-30T00:29:41;1999.90;;;906.53;;
5137;SDS011;53959;53.626;11.410;2024-01-30T00:32:07;1999.90;;;902.83;;
5137;SDS011;53959;53.626;11.410;2024-01-30T00:34:32;1999.90;;;912.27;;
5137;SDS011;53959;53.626;11.410;2024-01-30T00:36:57;1999.90;;;910.33;;
5137;SDS011;53959;53.626;11.410;2024-01-30T00:39:23;1999.90;;;900.20;;
5137;SDS011;53959;53.626;11.410;2024-01-30T00:41:48;1999.90;;;904.63;;
5137;SDS011;53959;53.626;11.410;2024-01-30T00:44:13;1999.90;;;902.87;;
5137;SDS011;53959;53.626;11.410;2024-01-30T00:46:39;1999.90;;;917.60;;
5137;SDS011;53959;53.626;11.410;2024-01-30T00:49:04;1999.90;;;909.70;;
5137;SDS011;53959;53.626;11.410;2024-01-30T00:51:29;1999.90;;;923.70;;
5137;SDS011;53959;53.626;11.410;2024-01-30T00:53:55;1999.90;;;922.67;;
5137;SDS011;53959;53.626;11.410;2024-01-30T00:56:20;1999.90;;;933.40;;
5137;SDS011;53959;53.626;11.410;2024-01-30T00:58:46;1999.90;;;924.83;;
5137;SDS011;53959;53.626;11.410;2024-01-30T01:01:11;1999.90;;;932.20;;
5137;SDS011;53959;53.626;11.410;2024-01-30T01:03:37;1999.90;;;904.93;;
5137;SDS011;53959;53.626;11.410;2024-01-30T01:06:02;1999.90;;;909.53;;
5137;SDS011;53959;53.626;11.410;2024-01-30T01:08:28;1999.90;;;902.93;;
5137;SDS011;53959;53.626;11.410;2024-01-30T01:10:53;1999.90;;;892.73;;
5137;SDS011;53959;53.626;11.410;2024-01-30T01:13:18;1999.90;;;902.50;;
5137;SDS011;53959;53.626;11.410;2024-01-30T01:15:44;1999.90;;;897.53;;
5137;SDS011;53959;53.626;11.410;2024-01-30T01:18:09;1999.90;;;902.03;;
5137;SDS011;53959;53.626;11.410;2024-01-30T01:20:35;1999.90;;;905.23;;
5137;SDS011;53959;53.626;11.410;2024-01-30T01:23:00;1999.90;;;908.23;;
5137;SDS011;53959;53.626;11.410;2024-01-30T01:25:26;1999.90;;;906.67;;
5137;SDS011;53959;53.626;11.410;2024-01-30T01:27:51;1999.90;;;897.80;;
5137;SDS011;53959;53.626;11.410;2024-01-30T01:30:17;1999.90;;;893.37;;
5137;SDS011;53959;53.626;11.410;2024-01-30T01:32:50;1999.90;;;894.23;;
5137;SDS011;53959;53.626;11.410;2024-01-30T01:35:23;1999.90;;;899.73;;
5137;SDS011;53959;53.626;11.410;2024-01-30T01:37:52;1999.90;;;898.70;;
5137;SDS011;53959;53.626;11.410;2024-01-30T01:40:20;1999.90;;;902.53;;
5137;SDS011;53959;53.626;11.410;2024-01-30T01:42:52;1999.90;;;901.47;;
5137;SDS011;53959;53.626;11.410;2024-01-30T01:45:18;1999.90;;;900.93;;
5137;SDS011;53959;53.626;11.410;2024-01-30T01:47:45;1999.90;;;898.73;;
5137;SDS011;53959;53.626;11.410;2024-01-30T01:50:13;1999.90;;;900.80;;
5137;SDS011;53959;53.626;11.410;2024-01-30T01:52:43;1999.90;;;900.10;;
5137;SDS011;53959;53.626;11.410;2024-01-30T01:55:10;1999.90;;;903.63;;
5137;SDS011;53959;53.626;11.410;2024-01-30T01:57:37;1999.90;;;895.50;;
5137;SDS011;53959;53.626;11.410;2024-01-30T02:00:02;1999.90;;;899.63;;
5137;SDS011;53959;53.626;11.410;2024-01-30T02:02:35;1999.90;;;902.20;;
5137;SDS011;53959;53.626;11.410;2024-01-30T02:05:01;1999.90;;;899.83;;
5137;SDS011;53959;53.626;11.410;2024-01-30T02:07:30;1999.90;;;899.03;;
5137;SDS011;53959;53.626;11.410;2024-01-30T02:09:56;1999.90;;;894.10;;
5137;SDS011;53959;53.626;11.410;2024-01-30T02:12:21;1999.90;;;897.90;;
5137;SDS011;53959;53.626;11.410;2024-01-30T02:14:47;1999.90;;;901.43;;
5137;SDS011;53959;53.626;11.410;2024-01-30T02:17:13;1999.90;;;912.53;;
5137;SDS011;53959;53.626;11.410;2024-01-30T02:19:39;1999.90;;;900.33;;
5137;SDS011;53959;53.626;11.410;2024-01-30T02:22:05;1999.90;;;902.17;;
5137;SDS011;53959;53.626;11.410;2024-01-30T02:24:31;1999.90;;;904.43;;
5137;SDS011;53959;53.626;11.410;2024-01-30T02:26:57;1999.90;;;899.23;;
5137;SDS011;53959;53.626;11.410;2024-01-30T02:29:22;1999.90;;;899.60;;
5137;SDS011;53959;53.626;11.410;2024-01-30T02:31:48;1999.90;;;899.53;;
5137;SDS011;53959;53.626;11.410;2024-01-30T02:34:13;1999.90;;;898.93;;
5137;SDS011;53959;53.626;11.410;2024-01-30T02:36:42;1999.90;;;901.40;;
5137;SDS011;53959;53.626;11.410;2024-01-30T02:39:08;1999.90;;;901.90;;
5137;SDS011;53959;53.626;11.410;2024-01-30T02:41:33;1999.90;;;903.07;;
5137;SDS011;53959;53.626;11.410;2024-01-30T02:43:58;1999.90;;;892.93;;
5137;SDS011;53959;53.626;11.410;2024-01-30T02:46:24;1999.90;;;899.83;;
5137;SDS011;53959;53.626;11.410;2024-01-30T02:48:49;1999.90;;;900.17;;
5137;SDS011;53959;53.626;11.410;2024-01-30T02:51:15;1999.90;;;902.23;;
5137;SDS011;53959;53.626;11.410;2024-01-30T02:53:42;1999.90;;;896.30;;
5137;SDS011;53959;53.626;11.410;2024-01-30T02:56:07;1999.90;;;899.57;;
5137;SDS011;53959;53.626;11.410;2024-01-30T02:58:35;1999.90;;;901.60;;
5137;SDS011;53959;53.626;11.410;2024-01-30T03:01:01;1999.90;;;902.50;;
5137;SDS011;53959;53.626;11.410;2024-01-30T03:03:26;1999.90;;;902.30;;
5137;SDS011;53959;53.626;11.410;2024-01-30T03:05:51;1999.90;;;901.83;;
5137;SDS011;53959;53.626;11.410;2024-01-30T03:08:16;1999.90;;;901.90;;
5137;SDS011;53959;53.626;11.410;2024-01-30T03:10:42;1999.90;;;904.70;;
5137;SDS011;53959;53.626;11.410;2024-01-30T03:13:07;1999.90;;;907.20;;
5137;SDS011;53959;53.626;11.410;2024-01-30T03:15:32;1999.90;;;901.77;;
5137;SDS011;53959;53.626;11.410;2024-01-30T03:17:58;1999.90;;;912.97;;
5137;SDS011;53959;53.626;11.410;2024-01-30T03:20:23;1999.90;;;900.70;;
5137;SDS011;53959;53.626;11.410;2024-01-30T03:22:49;1999.90;;;912.43;;
5137;SDS011;53959;53.626;11.410;2024-01-30T03:25:14;1999.90;;;911.70;;
5137;SDS011;53959;53.626;11.410;2024-01-30T03:27:40;1999.90;;;903.33;;
5137;SDS011;53959;53.626;11.410;2024-01-30T03:30:05;1999.90;;;907.60;;
5137;SDS011;53959;53.626;11.410;2024-01-30T03:32:31;1999.90;;;901.33;;
5137;SDS011;53959;53.626;11.410;2024-01-30T03:34:56;1999.90;;;903.80;;
5137;SDS011;53959;53.626;11.410;2024-01-30T03:37:23;1999.90;;;900.83;;
5137;SDS011;53959;53.626;11.410;2024-01-30T03:39:48;1999.90;;;894.40;;
5137;SDS011;53959;53.626;11.410;2024-01-30T03:42:14;1999.90;;;902.03;;
5137;SDS011;53959;53.626;11.410;2024-01-30T03:44:39;1999.90;;;909.53;;
5137;SDS011;53959;53.626;11.410;2024-01-30T03:47:05;1999.90;;;905.13;;
5137;SDS011;53959;53.626;11.410;2024-01-30T03:49:30;1999.90;;;903.03;;
5137;SDS011;53959;53.626;11.410;2024-01-30T03:51:56;1999.90;;;895.27;;
5137;SDS011;53959;53.626;11.410;2024-01-30T03:54:21;1999.90;;;901.93;;
5137;SDS011;53959;53.626;11.410;2024-01-30T03:56:46;1999.90;;;910.80;;
5137;SDS011;53959;53.626;11.410;2024-01-30T03:59:12;1999.90;;;907.93;;
5137;SDS011;53959;53.626;11.410;2024-01-30T04:01:37;1999.90;;;906.27;;
5137;SDS011;53959;53.626;11.410;2024-01-30T04:04:03;1999.90;;;913.67;;
5137;SDS011;53959;53.626;11.410;2024-01-30T04:06:28;1999.90;;;905.73;;
5137;SDS011;53959;53.626;11.410;2024-01-30T04:08:54;1999.90;;;902.77;;
5137;SDS011;53959;53.626;11.410;2024-01-30T04:11:19;1999.90;;;902.13;;
5137;SDS011;53959;53.626;11.410;2024-01-30T04:13:45;1999.90;;;900.00;;
5137;SDS011;53959;53.626;11.410;2024-01-30T04:16:19;1999.90;;;903.97;;
5137;SDS011;53959;53.626;11.410;2024-01-30T04:18:46;1999.90;;;900.40;;
5137;SDS011;53959;53.626;11.410;2024-01-30T04:21:11;1999.90;;;900.03;;
5137;SDS011;53959;53.626;11.410;2024-01-30T04:23:36;1999.90;;;900.93;;
5137;SDS011;53959;53.626;11.410;2024-01-30T04:26:02;1999.90;;;899.90;;
5137;SDS011;53959;53.626;11.410;2024-01-30T04:28:28;1999.90;;;901.53;;
5137;SDS011;53959;53.626;11.410;2024-01-30T04:30:53;1999.90;;;905.37;;
5137;SDS011;53959;53.626;11.410;2024-01-30T04:33:19;1999.90;;;901.47;;
5137;SDS011;53959;53.626;11.410;2024-01-30T04:35:44;1999.90;;;900.30;;
5137;SDS011;53959;53.626;11.410;2024-01-30T04:38:10;1999.90;;;901.13;;
5137;SDS011;53959;53.626;11.410;2024-01-30T04:40:35;1999.90;;;902.13;;
5137;SDS011;53959;53.626;11.410;2024-01-30T04:43:00;1999.90;;;900.80;;
5137;SDS011;53959;53.626;11.410;2024-01-30T04:45:26;1999.90;;;901.97;;
5137;SDS011;53959;53.626;11.410;2024-01-30T04:47:51;1999.90;;;902.17;;
5137;SDS011;53959;53.626;11.410;2024-01-30T04:50:16;1999.90;;;901.47;;
5137;SDS011;53959;53.626;11.410;2024-01-30T04:52:41;1999.90;;;908.20;;
5137;SDS011;53959;53.626;11.410;2024-01-30T04:55:07;1999.90;;;901.70;;
5137;SDS011;53959;53.626;11.410;2024-01-30T04:57:32;1999.90;;;901.60;;
5137;SDS011;53959;53.626;11.410;2024-01-30T04:59:58;1999.90;;;902.40;;
5137;SDS011;53959;53.626;11.410;2024-01-30T05:02:24;1999.90;;;902.13;;
5137;SDS011;53959;53.626;11.410;2024-01-30T05:04:49;1999.90;;;905.23;;
5137;SDS011;53959;53.626;11.410;2024-01-30T05:07:15;1999.90;;;897.03;;
5137;SDS011;53959;53.626;11.410;2024-01-30T05:09:40;1999.90;;;898.03;;
5137;SDS011;53959;53.626;11.410;2024-01-30T05:12:06;1999.90;;;901.27;;
5137;SDS011;53959;53.626;11.410;2024-01-30T05:14:32;1999.90;;;900.30;;
5137;SDS011;53959;53.626;11.410;2024-01-30T05:16:57;1999.90;;;907.47;;
5137;SDS011;53959;53.626;11.410;2024-01-30T05:19:22;1999.90;;;897.70;;
5137;SDS011;53959;53.626;11.410;2024-01-30T05:21:48;1999.90;;;908.10;;
5137;SDS011;53959;53.626;11.410;2024-01-30T05:24:14;1999.90;;;905.60;;
5137;SDS011;53959;53.626;11.410;2024-01-30T05:26:39;1999.90;;;897.00;;
5137;SDS011;53959;53.626;11.410;2024-01-30T05:29:05;1999.90;;;899.40;;
5137;SDS011;53959;53.626;11.410;2024-01-30T05:31:31;1999.90;;;902.20;;
5137;SDS011;53959;53.626;11.410;2024-01-30T05:33:57;1999.90;;;904.93;;
5137;SDS011;53959;53.626;11.410;2024-01-30T05:36:22;1999.90;;;912.13;;
5137;SDS011;53959;53.626;11.410;2024-01-30T05:38:47;1999.90;;;902.57;;
5137;SDS011;53959;53.626;11.410;2024-01-30T05:41:13;1999.90;;;905.00;;
5137;SDS011;53959;53.626;11.410;2024-01-30T05:43:38;1999.90;;;904.47;;
5137;SDS011;53959;53.626;11.410;2024-01-30T05:46:04;1999.90;;;904.53;;
5137;SDS011;53959;53.626;11.410;2024-01-30T05:48:29;1999.90;;;906.33;;
5137;SDS011;53959;53.626;11.410;2024-01-30T05:50:54;1999.90;;;897.80;;
5137;SDS011;53959;53.626;11.410;2024-01-30T05:53:20;1999.90;;;902.30;;
5137;SDS011;53959;53.626;11.410;2024-01-30T05:55:45;1999.90;;;904.90;;
5137;SDS011;53959;53.626;11.410;2024-01-30T05:58:11;1999.90;;;899.83;;
5137;SDS011;53959;53.626;11.410;2024-01-30T06:00:36;1999.90;;;904.13;;
5137;SDS011;53959;53.626;11.410;2024-01-30T06:03:01;1999.90;;;906.73;;
5137;SDS011;53959;53.626;11.410;2024-01-30T06:05:27;1999.90;;;906.60;;
5137;SDS011;53959;53.626;11.410;2024-01-30T06:07:52;1999.90;;;905.73;;
5137;SDS011;53959;53.626;11.410;2024-01-30T06:10:18;1999.90;;;899.33;;
5137;SDS011;53959;53.626;11.410;2024-01-30T06:12:44;1999.90;;;902.40;;
5137;SDS011;53959;53.626;11.410;2024-01-30T06:15:09;1999.90;;;888.90;;
5137;SDS011;53959;53.626;11.410;2024-01-30T06:17:35;1999.90;;;899.33;;
5137;SDS011;53959;53.626;11.410;2024-01-30T06:20:00;1999.90;;;896.50;;
5137;SDS011;53959;53.626;11.410;2024-01-30T06:22:26;1999.90;;;898.07;;
5137;SDS011;53959;53.626;11.410;2024-01-30T06:24:51;1999.90;;;895.00;;
5137;SDS011;53959;53.626;11.410;2024-01-30T06:27:16;1999.90;;;892.80;;
5137;SDS011;53959;53.626;11.410;2024-01-30T06:29:42;1999.90;;;899.63;;
5137;SDS011;53959;53.626;11.410;2024-01-30T06:32:08;1999.90;;;897.23;;
5137;SDS011;53959;53.626;11.410;2024-01-30T06:34:34;1999.90;;;895.97;;
5137;SDS011;53959;53.626;11.410;2024-01-30T06:36:59;1999.90;;;896.10;;
5137;SDS011;53959;53.626;11.410;2024-01-30T06:39:25;1999.90;;;900.70;;
5137;SDS011;53959;53.626;11.410;2024-01-30T06:41:51;1999.90;;;902.63;;
5137;SDS011;53959;53.626;11.410;2024-01-30T06:44:16;1999.90;;;905.53;;
5137;SDS011;53959;53.626;11.410;2024-01-30T06:46:42;1999.90;;;905.17;;
5137;SDS011;53959;53.626;11.410;2024-01-30T06:49:07;1999.90;;;899.17;;
5137;SDS011;53959;53.626;11.410;2024-01-30T06:51:32;1999.90;;;900.60;;
5137;SDS011;53959;53.626;11.410;2024-01-30T06:53:58;1999.90;;;883.60;;
5137;SDS011;53959;53.626;11.410;2024-01-30T06:56:23;1999.90;;;906.03;;
5137;SDS011;53959;53.626;11.410;2024-01-30T06:58:49;1999.90;;;904.40;;
5137;SDS011;53959;53.626;11.410;2024-01-30T07:01:15;1999.90;;;902.00;;
5137;SDS011;53959;53.626;11.410;2024-01-30T07:03:41;1999.90;;;897.30;;
5137;SDS011;53959;53.626;11.410;2024-01-30T07:06:06;1999.90;;;907.33;;
5137;SDS011;53959;53.626;11.410;2024-01-30T07:08:33;1999.90;;;908.13;;
5137;SDS011;53959;53.626;11.410;2024-01-30T07:10:58;1999.90;;;986.67;;
5137;SDS011;53959;53.626;11.410;2024-01-30T07:13:24;1999.90;;;983.17;;
5137;SDS011;53959;53.626;11.410;2024-01-30T07:15:49;1999.90;;;978.97;;
5137;SDS011;53959;53.626;11.410;2024-01-30T07:18:15;1999.90;;;963.17;;
5137;SDS011;53959;53.626;11.410;2024-01-30T07:20:40;1999.90;;;949.07;;
5137;SDS011;53959;53.626;11.410;2024-01-30T07:23:11;1999.90;;;963.97;;
5137;SDS011;53959;53.626;11.410;2024-01-30T07:25:39;1999.90;;;985.80;;
5137;SDS011;53959;53.626;11.410;2024-01-30T07:28:06;1999.90;;;963.90;;
5137;SDS011;53959;53.626;11.410;2024-01-30T07:30:32;1999.90;;;980.33;;
5137;SDS011;53959;53.626;11.410;2024-01-30T07:32:58;1999.90;;;999.10;;
5137;SDS011;53959;53.626;11.410;2024-01-30T07:35:23;1999.90;;;983.27;;
5137;SDS011;53959;53.626;11.410;2024-01-30T07:37:49;1999.90;;;949.33;;
5137;SDS011;53959;53.626;11.410;2024-01-30T07:40:14;1999.90;;;999.40;;
5137;SDS011;53959;53.626;11.410;2024-01-30T07:42:39;1999.90;;;979.80;;
5137;SDS011;53959;53.626;11.410;2024-01-30T07:45:05;1999.90;;;929.27;;
5137;SDS011;53959;53.626;11.410;2024-01-30T07:47:30;1999.90;;;958.70;;
5137;SDS011;53959;53.626;11.410;2024-01-30T07:49:56;1999.90;;;991.80;;
5137;SDS011;53959;53.626;11.410;2024-01-30T07:52:21;1999.90;;;963.93;;
5137;SDS011;53959;53.626;11.410;2024-01-30T07:54:46;1999.90;;;956.73;;
5137;SDS011;53959;53.626;11.410;2024-01-30T07:57:12;1999.90;;;980.73;;
5137;SDS011;53959;53.626;11.410;2024-01-30T07:59:37;1986.40;;;999.90;;
5137;SDS011;53959;53.626;11.410;2024-01-30T08:02:02;1999.90;;;978.97;;
5137;SDS011;53959;53.626;11.410;2024-01-30T08:04:28;1994.93;;;996.67;;
5137;SDS011;53959;53.626;11.410;2024-01-30T08:06:53;1986.23;;;997.00;;
5137;SDS011;53959;53.626;11.410;2024-01-30T08:09:19;1989.50;;;998.03;;
5137;SDS011;53959;53.626;11.410;2024-01-30T08:11:44;1999.90;;;991.27;;
5137;SDS011;53959;53.626;11.410;2024-01-30T08:14:09;1999.90;;;933.43;;
5137;SDS011;53959;53.626;11.410;2024-01-30T08:16:35;1999.90;;;933.00;;
5137;SDS011;53959;53.626;11.410;2024-01-30T08:19:00;1999.90;;;929.23;;
5137;SDS011;53959;53.626;11.410;2024-01-30T08:21:26;1999.90;;;937.67;;
5137;SDS011;53959;53.626;11.410;2024-01-30T08:23:51;1999.90;;;929.70;;
5137;SDS011;53959;53.626;11.410;2024-01-30T08:26:17;1999.90;;;921.90;;
5137;SDS011;53959;53.626;11.410;2024-01-30T08:28:42;1999.90;;;934.10;;
5137;SDS011;53959;53.626;11.410;2024-01-30T08:31:10;1999.90;;;937.27;;
5137;SDS011;53959;53.626;11.410;2024-01-30T08:33:35;1999.90;;;925.83;;
5137;SDS011;53959;53.626;11.410;2024-01-30T08:36:00;1999.90;;;929.00;;
5137;SDS011;53959;53.626;11.410;2024-01-30T08:38:26;1999.90;;;926.43;;
5137;SDS011;53959;53.626;11.410;2024-01-30T08:40:51;1999.90;;;921.97;;
5137;SDS011;53959;53.626;11.410;2024-01-30T08:43:16;1999.90;;;941.30;;
5137;SDS011;53959;53.626;11.410;2024-01-30T08:45:42;1999.90;;;940.23;;
5137;SDS011;53959;53.626;11.410;2024-01-30T08:48:07;1999.90;;;935.37;;
5137;SDS011;53959;53.626;11.410;2024-01-30T08:50:33;1999.90;;;922.57;;
5137;SDS011;53959;53.626;11.410;2024-01-30T08:52:58;1999.90;;;937.37;;
5137;SDS011;53959;53.626;11.410;2024-01-30T08:55:24;1999.90;;;929.77;;
5137;SDS011;53959;53.626;11.410;2024-01-30T08:57:49;1999.90;;;945.07;;
5137;SDS011;53959;53.626;11.410;2024-01-30T09:00:14;1999.90;;;933.17;;
5137;SDS011;53959;53.626;11.410;2024-01-30T09:02:40;1999.90;;;937.13;;
5137;SDS011;53959;53.626;11.410;2024-01-30T09:05:05;1999.90;;;940.20;;
5137;SDS011;53959;53.626;11.410;2024-01-30T09:07:31;1999.90;;;945.23;;
5137;SDS011;53959;53.626;11.410;2024-01-30T09:09:56;1999.90;;;950.00;;
5137;SDS011;53959;53.626;11.410;2024-01-30T09:12:22;1999.90;;;942.87;;
5137;SDS011;53959;53.626;11.410;2024-01-30T09:14:47;1999.90;;;944.77;;
5137;SDS011;53959;53.626;11.410;2024-01-30T09:17:12;1999.90;;;955.13;;
5137;SDS011;53959;53.626;11.410;2024-01-30T09:19:38;1999.90;;;939.03;;
5137;SDS011;53959;53.626;11.410;2024-01-30T09:22:03;1999.90;;;945.20;;
5137;SDS011;53959;53.626;11.410;2024-01-30T09:24:29;1999.90;;;926.73;;
5137;SDS011;53959;53.626;11.410;2024-01-30T09:26:54;1999.90;;;931.40;;
5137;SDS011;53959;53.626;11.410;2024-01-30T09:29:20;1999.90;;;933.47;;
5137;SDS011;53959;53.626;11.410;2024-01-30T09:31:46;1999.90;;;940.43;;
5137;SDS011;53959;53.626;11.410;2024-01-30T09:34:12;1999.90;;;961.77;;
5137;SDS011;53959;53.626;11.410;2024-01-30T09:36:38;1999.90;;;965.10;;
5137;SDS011;53959;53.626;11.410;2024-01-30T09:39:04;1999.90;;;937.80;;
5137;SDS011;53959;53.626;11.410;2024-01-30T09:41:29;1999.90;;;936.40;;
5137;SDS011;53959;53.626;11.410;2024-01-30T09:43:58;1999.90;;;949.93;;
5137;SDS011;53959;53.626;11.410;2024-01-30T09:46:26;1999.90;;;936.97;;
5137;SDS011;53959;53.626;11.410;2024-01-30T09:48:52;1999.90;;;931.87;;
5137;SDS011;53959;53.626;11.410;2024-01-30T09:51:20;1999.90;;;944.77;;
5137;SDS011;53959;53.626;11.410;2024-01-30T09:53:47;1999.90;;;941.70;;
5137;SDS011;53959;53.626;11.410;2024-01-30T09:56:13;1999.90;;;945.17;;
5137;SDS011;53959;53.626;11.410;2024-01-30T09:58:39;1999.90;;;935.97;;
5137;SDS011;53959;53.626;11.410;2024-01-30T10:01:05;1999.90;;;969.70;;
5137;SDS011;53959;53.626;11.410;2024-01-30T10:03:30;1999.90;;;982.23;;
5137;SDS011;53959;53.626;11.410;2024-01-30T10:05:56;1999.90;;;986.77;;
5137;SDS011;53959;53.626;11.410;2024-01-30T10:08:21;1999.90;;;999.90;;
5137;SDS011;53959;53.626;11.410;2024-01-30T10:10:47;1999.90;;;994.87;;
5137;SDS011;53959;53.626;11.410;2024-01-30T10:13:13;1999.90;;;938.10;;
5137;SDS011;53959;53.626;11.410;2024-01-30T10:15:38;1999.90;;;920.90;;
5137;SDS011;53959;53.626;11.410;2024-01-30T10:18:05;1999.90;;;958.53;;
5137;SDS011;53959;53.626;11.410;2024-01-30T10:20:32;1999.90;;;930.00;;
5137;SDS011;53959;53.626;11.410;2024-01-30T10:22:58;1999.90;;;928.17;;
5137;SDS011;53959;53.626;11.410;2024-01-30T10:25:23;1999.90;;;951.83;;
5137;SDS011;53959;53.626;11.410;2024-01-30T10:27:52;1999.90;;;923.20;;
5137;SDS011;53959;53.626;11.410;2024-01-30T10:30:23;1999.90;;;930.33;;
5137;SDS011;53959;53.626;11.410;2024-01-30T10:32:49;1999.90;;;963.93;;
5137;SDS011;53959;53.626;11.410;2024-01-30T10:35:15;1999.90;;;930.20;;
5137;SDS011;53959;53.626;11.410;2024-01-30T10:37:41;1999.90;;;937.20;;
5137;SDS011;53959;53.626;11.410;2024-01-30T10:40:09;1999.90;;;920.58;;
5137;SDS011;53959;53.626;11.410;2024-01-30T10:42:38;1999.90;;;929.17;;
5137;SDS011;53959;53.626;11.410;2024-01-30T10:45:10;1999.90;;;954.93;;
5137;SDS011;53959;53.626;11.410;2024-01-30T10:47:46;1999.90;;;933.15;;
5137;SDS011;53959;53.626;11.410;2024-01-30T10:50:15;1999.90;;;962.75;;
5137;SDS011;53959;53.626;11.410;2024-01-30T10:52:41;1999.90;;;945.03;;
5137;SDS011;53959;53.626;11.410;2024-01-30T10:55:07;1999.90;;;945.90;;
5137;SDS011;53959;53.626;11.410;2024-01-30T10:57:36;1999.90;;;958.53;;
5137;SDS011;53959;53.626;11.410;2024-01-30T11:00:03;1999.90;;;976.10;;
5137;SDS011;53959;53.626;11.410;2024-01-30T11:02:35;1999.90;;;962.70;;
5137;SDS011;53959;53.626;11.410;2024-01-30T11:05:04;1999.90;;;947.60;;
5137;SDS011;53959;53.626;11.410;2024-01-30T11:07:30;1999.90;;;954.10;;
5137;SDS011;53959;53.626;11.410;2024-01-30T11:12:23;1999.90;;;937.75;;
5137;SDS011;53959;53.626;11.410;2024-01-30T11:14:50;1999.90;;;968.00;;
5137;SDS011;53959;53.626;11.410;2024-01-30T11:17:28;1999.90;;;959.47;;
5137;SDS011;53959;53.626;11.410;2024-01-30T11:19:53;1999.90;;;935.33;;
5137;SDS011;53959;53.626;11.410;2024-01-30T11:22:20;1999.90;;;941.27;;
5137;SDS011;53959;53.626;11.410;2024-01-30T11:24:46;1999.90;;;929.77;;
5137;SDS011;53959;53.626;11.410;2024-01-30T11:27:12;1999.90;;;912.50;;
5137;SDS011;53959;53.626;11.410;2024-01-30T11:29:40;1999.90;;;982.17;;
5137;SDS011;53959;53.626;11.410;2024-01-30T11:32:05;1999.90;;;931.30;;
5137;SDS011;53959;53.626;11.410;2024-01-30T11:34:32;1999.90;;;922.23;;
5137;SDS011;53959;53.626;11.410;2024-01-30T11:36:59;1999.90;;;927.73;;
5137;SDS011;53959;53.626;11.410;2024-01-30T11:39:31;1999.90;;;974.00;;
5137;SDS011;53959;53.626;11.410;2024-01-30T11:41:57;1999.90;;;938.07;;
5137;SDS011;53959;53.626;11.410;2024-01-30T11:44:24;1999.90;;;927.03;;
5137;SDS011;53959;53.626;11.410;2024-01-30T11:46:51;1999.90;;;956.57;;
5137;SDS011;53959;53.626;11.410;2024-01-30T11:49:17;1999.90;;;922.40;;
5137;SDS011;53959;53.626;11.410;2024-01-30T11:51:43;1999.90;;;949.27;;
5137;SDS011;53959;53.626;11.410;2024-01-30T11:54:10;1999.90;;;931.67;;
5137;SDS011;53959;53.626;11.410;2024-01-30T11:56:36;1999.90;;;917.50;;
5137;SDS011;53959;53.626;11.410;2024-01-30T11:59:03;1999.90;;;977.23;;
5137;SDS011;53959;53.626;11.410;2024-01-30T12:01:29;1999.90;;;931.47;;
5137;SDS011;53959;53.626;11.410;2024-01-30T12:03:58;1999.90;;;917.27;;
5137;SDS011;53959;53.626;11.410;2024-01-30T12:06:24;1999.90;;;969.67;;
5137;SDS011;53959;53.626;11.410;2024-01-30T12:08:59;1999.90;;;972.00;;
5137;SDS011;53959;53.626;11.410;2024-01-30T12:11:29;1999.90;;;923.93;;
5137;SDS011;53959;53.626;11.410;2024-01-30T12:13:55;1999.90;;;991.10;;
5137;SDS011;53959;53.626;11.410;2024-01-30T12:16:20;1999.90;;;958.10;;
5137;SDS011;53959;53.626;11.410;2024-01-30T12:18:46;1999.90;;;911.50;;
5137;SDS011;53959;53.626;11.410;2024-01-30T12:21:12;1999.90;;;939.90;;
5137;SDS011;53959;53.626;11.410;2024-01-30T12:23:37;1999.90;;;935.13;;
5137;SDS011;53959;53.626;11.410;2024-01-30T12:26:03;1999.90;;;924.70;;
5137;SDS011;53959;53.626;11.410;2024-01-30T12:28:32;1999.90;;;942.33;;
5137;SDS011;53959;53.626;11.410;2024-01-30T12:31:01;1999.90;;;940.30;;
5137;SDS011;53959;53.626;11.410;2024-01-30T12:33:29;1999.90;;;933.57;;
5137;SDS011;53959;53.626;11.410;2024-01-30T12:36:01;1999.90;;;923.73;;
5137;SDS011;53959;53.626;11.410;2024-01-30T12:38:27;1999.90;;;933.70;;
5137;SDS011;53959;53.626;11.410;2024-01-30T12:40:54;1999.90;;;938.63;;
5137;SDS011;53959;53.626;11.410;2024-01-30T12:43:21;1999.90;;;969.07;;
5137;SDS011;53959;53.626;11.410;2024-01-30T12:45:46;1999.90;;;937.33;;
5137;SDS011;53959;53.626;11.410;2024-01-30T12:48:12;1999.90;;;939.33;;
5137;SDS011;53959;53.626;11.410;2024-01-30T12:50:37;1999.90;;;935.60;;
5137;SDS011;53959;53.626;11.410;2024-01-30T12:53:02;1999.90;;;978.90;;
5137;SDS011;53959;53.626;11.410;2024-01-30T12:55:28;1999.90;;;934.27;;
5137;SDS011;53959;53.626;11.410;2024-01-30T12:57:55;1999.90;;;922.73;;
5137;SDS011;53959;53.626;11.410;2024-01-30T13:00:21;1999.90;;;977.17;;
5137;SDS011;53959;53.626;11.410;2024-01-30T13:02:47;1999.90;;;953.63;;
5137;SDS011;53959;53.626;11.410;2024-01-30T13:05:12;1999.90;;;934.93;;
5137;SDS011;53959;53.626;11.410;2024-01-30T13:07:38;1999.90;;;930.50;;
5137;SDS011;53959;53.626;11.410;2024-01-30T13:10:03;1999.90;;;935.43;;
5137;SDS011;53959;53.626;11.410;2024-01-30T13:12:29;1999.90;;;935.57;;
5137;SDS011;53959;53.626;11.410;2024-01-30T13:14:55;1999.90;;;982.90;;
5137;SDS011;53959;53.626;11.410;2024-01-30T13:17:20;1999.90;;;980.03;;
5137;SDS011;53959;53.626;11.410;2024-01-30T13:19:46;1999.90;;;953.50;;
5137;SDS011;53959;53.626;11.410;2024-01-30T13:22:11;1999.90;;;969.57;;
5137;SDS011;53959;53.626;11.410;2024-01-30T13:24:36;1999.90;;;926.20;;
5137;SDS011;53959;53.626;11.410;2024-01-30T13:27:02;1999.90;;;981.33;;
5137;SDS011;53959;53.626;11.410;2024-01-30T13:29:30;1999.90;;;923.97;;
5137;SDS011;53959;53.626;11.410;2024-01-30T13:31:56;1999.90;;;941.20;;
5137;SDS011;53959;53.626;11.410;2024-01-30T13:34:21;1999.90;;;913.90;;
5137;SDS011;53959;53.626;11.410;2024-01-30T13:36:47;1999.90;;;919.17;;
5137;SDS011;53959;53.626;11.410;2024-01-30T13:39:13;1999.90;;;917.40;;